Terminal Aerodrome Forecast
Issued by NWS

Home | Current Version | Previous Version | Text Only | Print | Product List | Glossary On
Versions: 1 2 3 4 5 6 7 8 9 10 11 12 13
000
FTUS45 KRIW 170500
TAFCOD
TAF
KCOD 170539Z 1706/1806 VRB05KT P6SM FEW100 BKN150
     FM171900 20010KT P6SM SCT100 BKN150
     FM180300 22008KT P6SM FEW120 SCT250
      AMD LTD TO CLD VIS AND WIND=

USA.gov is the U.S. government's official web portal to all federal, state and local government web resources and services.